»·PEaware :: N9238L KCMA-KSNA

N9238L :: KCMA-KSNA

FLIGHT INFORMATION

Flight Status: Arrived
Operator: Privately registered:
United States
More flights under this callsign
Pilot: Ad T. (31471)
Aircraft: CESSNA 152 AEROBAT
(C152)
More flights by this aircraft type
Origin: KCMA Camarillo
United States
Destination: KSNA John Wayne-Orange Co
United States
More flights between these airports :: More routes between these airports
Route:
File this flight plan on PilotEdge
Remarks:
Altitude:
(Current/Filed)
5,500ft
Speed:
(Current/Filed)
95kts
Departed: 21-Nov-20 08:59 PM
Arrived: 21-Nov-20 09:58 PM
Distance/Time
Traveled:
69nm/0:59
Distance/Time
To Go:
Arrived

Flight Plot

Page will automatically refresh every two minutes.


Map Options




Map Legend


Flown Route
Filed Route
Departure Airport
Arrival Airport
Navaid (VOR, NDB)
Fix

Horizontal Profiles

Position Reports

Time Latitude Longitude Heading Altitude Ground
Speed
21-Nov-20 20:45 34.210678 -119.092336 182 71ft 0kts
21-Nov-20 20:46 34.210678 -119.092336 182 71ft 0kts
21-Nov-20 20:47 34.210678 -119.092336 182 71ft 0kts
21-Nov-20 20:48 34.210678 -119.092336 182 71ft 0kts
21-Nov-20 20:49 34.210678 -119.092336 182 71ft 0kts
21-Nov-20 20:50 34.210678 -119.092336 182 71ft 0kts
21-Nov-20 20:51 34.210678 -119.092336 182 71ft 0kts
21-Nov-20 20:52 34.210680 -119.092336 182 71ft 0kts
21-Nov-20 20:53 34.210915 -119.092320 167 72ft 1kts
21-Nov-20 20:54 34.210955 -119.089259 89 77ft 12kts
21-Nov-20 20:55 34.211043 -119.084639 14 79ft 5kts
21-Nov-20 20:56 34.212813 -119.084610 0 77ft 0kts
21-Nov-20 20:57 34.213638 -119.084766 305 78ft 6kts
21-Nov-20 20:58 34.213576 -119.103659 272 464ft 74kts
21-Nov-20 20:59 34.202275 -119.114870 128 1261ft 68kts
21-Nov-20 21:00 34.200058 -119.091640 83 1973ft 71kts
21-Nov-20 21:01 34.200783 -119.067731 85 2694ft 71kts
21-Nov-20 21:02 34.203291 -119.043789 78 3368ft 71kts
21-Nov-20 21:03 34.206601 -119.020310 105 3995ft 73kts
21-Nov-20 21:04 34.198731 -118.997560 111 4599ft 73kts
21-Nov-20 21:05 34.185541 -118.978902 121 5167ft 79kts
21-Nov-20 21:06 34.179490 -118.953092 105 5518ft 89kts
21-Nov-20 21:07 34.175173 -118.922165 92 5504ft 97kts
21-Nov-20 21:08 34.176875 -118.889819 82 5470ft 94kts
21-Nov-20 21:09 34.180794 -118.858215 89 5445ft 95kts
21-Nov-20 21:10 34.179502 -118.826652 89 5474ft 93kts
21-Nov-20 21:11 34.180714 -118.794971 84 5489ft 94kts
21-Nov-20 21:12 34.181632 -118.763251 93 5502ft 94kts
21-Nov-20 21:13 34.180351 -118.731388 93 5509ft 94kts
21-Nov-20 21:14 34.178139 -118.699739 89 5536ft 95kts
21-Nov-20 21:15 34.180041 -118.668090 84 5551ft 94kts
21-Nov-20 21:16 34.181785 -118.636146 88 5547ft 95kts
21-Nov-20 21:17 34.180820 -118.604174 93 5531ft 95kts
21-Nov-20 21:18 34.177942 -118.572230 97 5518ft 95kts
21-Nov-20 21:19 34.175063 -118.540817 67 5540ft 93kts
21-Nov-20 21:20 34.189856 -118.550399 242 5586ft 100kts
21-Nov-20 21:21 34.183510 -118.542887 348 5536ft 98kts
21-Nov-20 21:22 34.172462 -118.552068 141 5541ft 94kts
21-Nov-20 21:23 34.150396 -118.534800 154 5591ft 96kts
21-Nov-20 21:24 34.125278 -118.522574 159 5581ft 99kts
21-Nov-20 21:25 34.099023 -118.511663 161 5514ft 100kts
21-Nov-20 21:26 34.072945 -118.500452 156 5500ft 99kts
21-Nov-20 21:27 34.047876 -118.487907 153 5550ft 95kts
21-Nov-20 21:28 34.023441 -118.475039 157 5585ft 96kts
21-Nov-20 21:29 33.998626 -118.462291 154 5597ft 97kts
21-Nov-20 21:30 33.974494 -118.447117 160 5564ft 98kts
21-Nov-20 21:31 33.948482 -118.437185 162 5538ft 98kts
21-Nov-20 21:32 33.925416 -118.420908 139 5540ft 96kts
21-Nov-20 21:33 33.904081 -118.400430 139 5513ft 97kts
21-Nov-20 21:34 33.883773 -118.378847 138 5531ft 97kts
21-Nov-20 21:35 33.867025 -118.359825 135 5539ft 97kts
21-Nov-20 21:36 33.847763 -118.336968 137 5557ft 97kts
21-Nov-20 21:37 33.827098 -118.315928 139 5566ft 97kts
21-Nov-20 21:38 33.805933 -118.295380 140 5572ft 97kts
21-Nov-20 21:39 33.785331 -118.273777 136 5542ft 99kts
21-Nov-20 21:40 33.767517 -118.248686 112 5505ft 99kts
21-Nov-20 21:41 33.764409 -118.216704 94 5180ft 95kts
21-Nov-20 21:43 33.761444 -118.185367 93 4573ft 92kts
21-Nov-20 21:44 33.761085 -118.155063 88 3921ft 90kts
21-Nov-20 21:45 33.760438 -118.125462 91 3218ft 88kts
21-Nov-20 21:46 33.757310 -118.096238 102 2553ft 87kts
21-Nov-20 21:47 33.752931 -118.068833 91 2526ft 84kts
21-Nov-20 21:48 33.752250 -118.041310 87 2626ft 83kts
21-Nov-20 21:49 33.746547 -118.014914 121 2184ft 84kts
21-Nov-20 21:50 33.735977 -117.993195 116 1707ft 74kts
21-Nov-20 21:51 33.721804 -117.974202 140 1343ft 81kts
21-Nov-20 21:52 33.705135 -117.958072 134 1461ft 73kts
21-Nov-20 21:53 33.692013 -117.938881 123 1452ft 76kts
21-Nov-20 21:54 33.682266 -117.916865 112 1263ft 75kts
21-Nov-20 21:55 33.681952 -117.893302 71 1038ft 74kts
21-Nov-20 21:56 33.696370 -117.880261 29 927ft 68kts
21-Nov-20 21:57 33.690630 -117.862915 148 513ft 56kts
21-Nov-20 21:58 33.677935 -117.867854 278 51ft 25kts
21-Nov-20 21:59 33.678209 -117.868616 294 50ft 0kts
21-Nov-20 21:59 33.675405 -117.870528 207 53ft 23kts
21-Nov-20 22:01 33.674109 -117.872454 298 53ft 0kts
21-Nov-20 22:01 33.674109 -117.872454 298 53ft 0kts

Navigation Log

Ident Type
Flight plan parsing failed, navigation log unavailable